Last 24 Hours

UH Manoa Atmospheric Sciences

15 Minute Data | Pacific/Honolulu
as of 7/13/20 6:41 AM HST
Station Date Time Temp (°F) RH (%) Dew Pt (°F) Wind Spd (mph) Wind Dir (°) Wind Gust (mph) Latest Rain (In) Solar Rad (W/m2) Heat Index (°F) Barometric Pressure (inHg) Daily Rain (In) Daily Min Temp (°F) Daily Max Temp (°F) Daily Max Wind (mph)
UH Manoa Atmospheric Sciences 7/13/20 0130 76.3 73 66.9 5.9 ENE | 64 11.2 0.00 0 76.3 30.03 0.00 75.0 77.4 12.2
UH Manoa Atmospheric Sciences 7/13/20 0115 76.3 73 67.0 6.7 ENE | 62 11.0 0.00 0 76.3 30.03 0.00 75.0 77.4 12.2
UH Manoa Atmospheric Sciences 7/13/20 0100 75.9 75 67.4 5.3 ENE | 59 11.6 0.00 0 75.9 30.04 0.00 75.0 77.4 12.2
UH Manoa Atmospheric Sciences 7/13/20 0045 75.8 76 67.6 4.9 NE | 50 9.8 0.00 0 75.8 30.05 0.00 75.0 77.4 12.2
UH Manoa Atmospheric Sciences 7/13/20 0030 75.8 78 68.3 4.2 ENE | 62 9.8 0.00 0 75.8 30.05 0.00 75.0 77.4 12.2
UH Manoa Atmospheric Sciences 7/13/20 0015 77.1 72 67.4 4.8 ENE | 61 12.2 0.00 0 77.1 30.05 0.00 76.8 77.4 12.2
UH Manoa Atmospheric Sciences 7/13/20 0000 77.0 72 67.3 7.0 NE | 53 13.9 0.00 0 77.0 30.06 0.00 75.7 82.5 26.8
UH Manoa Atmospheric Sciences 7/12/20 2345 76.8 71 66.6 6.1 ENE | 60 12.7 0.00 0 76.8 30.06 0.00 75.7 82.5 26.8
UH Manoa Atmospheric Sciences 7/12/20 2330 76.5 71 66.3 4.4 ENE | 75 8.4 0.00 0 76.5 30.06 0.00 75.7 82.5 26.8
UH Manoa Atmospheric Sciences 7/12/20 2315 76.4 71 66.3 7.1 ENE | 62 13.3 0.00 0 76.4 30.06 0.00 75.7 82.5 26.8
UH Manoa Atmospheric Sciences 7/12/20 2300 76.3 74 67.4 9.2 NE | 56 18.8 0.00 0 76.3 30.05 0.00 75.7 82.5 26.8
UH Manoa Atmospheric Sciences 7/12/20 2245 77.1 71 67.2 8.4 NE | 51 19.5 0.00 0 77.1 30.05 0.00 75.7 82.5 26.8
UH Manoa Atmospheric Sciences 7/12/20 2230 77.0 72 67.2 7.5 NE | 45 17.4 0.00 0 77.0 30.06 0.00 75.7 82.5 26.8
UH Manoa Atmospheric Sciences 7/12/20 2215 77.2 71 66.9 6.9 NE | 50 15.5 0.00 0 77.2 30.06 0.00 75.7 82.5 26.8
UH Manoa Atmospheric Sciences 7/12/20 2200 77.3 70 66.6 7.3 NE | 43 16.5 0.00 0 77.3 30.06 0.00 75.7 82.5 26.8
UH Manoa Atmospheric Sciences 7/12/20 2145 77.2 71 67.0 5.8 NE | 46 13.3 0.00 0 77.2 30.05 0.00 75.7 82.5 26.8
UH Manoa Atmospheric Sciences 7/12/20 2130 76.8 72 67.2 5.4 NE | 51 12.1 0.00 0 76.8 30.05 0.00 75.7 82.5 26.8
UH Manoa Atmospheric Sciences 7/12/20 2115 77.5 71 67.2 5.8 ENE | 58 13.4 0.00 0 77.5 30.05 0.00 75.7 82.5 26.8
UH Manoa Atmospheric Sciences 7/12/20 2100 77.6 70 67.0 6.8 NE | 44 13.7 0.00 0 77.6 30.05 0.00 75.7 82.5 26.8
UH Manoa Atmospheric Sciences 7/12/20 2045 77.3 70 66.9 7.4 NE | 52 14.5 0.00 0 77.3 30.05 0.00 75.7 82.5 26.8
UH Manoa Atmospheric Sciences 7/12/20 2030 77.5 69 66.8 6.8 NE | 49 20.0 0.00 0 77.5 30.05 0.00 75.7 82.5 26.8
UH Manoa Atmospheric Sciences 7/12/20 2015 77.6 68 66.4 7.3 NE | 52 18.0 0.00 0 77.6 30.04 0.00 75.7 82.5 26.8
UH Manoa Atmospheric Sciences 7/12/20 2000 77.4 68 66.0 7.8 ENE | 59 14.5 0.00 0 77.4 30.04 0.00 75.7 82.5 26.8
UH Manoa Atmospheric Sciences 7/12/20 1945 77.4 68 65.9 7.7 NE | 48 14.5 0.00 0 77.4 30.04 0.00 75.7 82.5 26.8
UH Manoa Atmospheric Sciences 7/12/20 1930 77.2 70 66.5 8.0 ENE | 61 15.6 0.00 0 77.2 30.03 0.00 75.7 82.5 26.8
UH Manoa Atmospheric Sciences 7/12/20 1915 77.6 70 66.9 5.1 ENE | 58 11.5 0.00 4 77.6 30.03 0.00 75.7 82.5 26.8
UH Manoa Atmospheric Sciences 7/12/20 1900 78.2 65 65.8 6.9 NE | 48 14.2 0.00 20 78.2 30.02 0.00 75.7 82.5 26.8
UH Manoa Atmospheric Sciences 7/12/20 1845 78.5 65 65.8 6.1 NE | 51 14.9 0.00 33 78.5 30.02 0.00 75.7 82.5 26.8
UH Manoa Atmospheric Sciences 7/12/20 1830 78.6 64 65.5 5.1 NE | 45 15.8 0.00 52 78.6 30.02 0.00 75.7 82.5 26.8
UH Manoa Atmospheric Sciences 7/12/20 1815 78.5 66 66.2 5.0 NE | 46 15.0 0.00 59 78.5 30.01 0.00 75.7 82.5 26.8
UH Manoa Atmospheric Sciences 7/12/20 1800 78.3 67 66.5 4.0 ESE | 111 14.7 0.00 76 78.3 30.01 0.00 75.7 82.5 26.8
UH Manoa Atmospheric Sciences 7/12/20 1745 78.0 68 66.6 4.7 NE | 53 12.5 0.00 98 78.0 30.01 0.00 75.7 82.5 26.8
UH Manoa Atmospheric Sciences 7/12/20 1730 78.2 69 67.2 8.1 NE | 45 16.2 0.00 138 78.2 30.01 0.00 75.7 82.5 26.8
UH Manoa Atmospheric Sciences 7/12/20 1715 79.5 64 66.3 7.3 NE | 41 18.8 0.00 192 79.6 30.00 0.00 75.7 82.5 26.8
UH Manoa Atmospheric Sciences 7/12/20 1700 79.3 63 65.9 6.4 NE | 40 13.6 0.00 197 79.3 30.00 0.00 75.7 82.5 26.8
UH Manoa Atmospheric Sciences 7/12/20 1645 78.5 66 66.4 10.1 NE | 41 20.0 0.00 217 78.5 30.00 0.00 75.7 82.5 26.8
UH Manoa Atmospheric Sciences 7/12/20 1630 78.6 66 66.5 8.9 NE | 44 19.7 0.00 211 78.6 30.00 0.00 75.7 82.5 26.8
UH Manoa Atmospheric Sciences 7/12/20 1615 78.1 66 66.0 8.1 NE | 46 17.2 0.00 267 78.1 30.00 0.00 75.7 82.5 26.8
UH Manoa Atmospheric Sciences 7/12/20 1600 76.6 69 65.6 5.3 ENE | 76 14.5 0.00 286 76.6 30.01 0.00 75.7 82.5 26.8
UH Manoa Atmospheric Sciences 7/12/20 1545 77.4 68 66.1 8.5 NE | 45 19.2 0.00 192 77.5 30.01 0.00 75.7 82.5 26.8
UH Manoa Atmospheric Sciences 7/12/20 1530 80.3 61 65.7 2.7 NE | 36 14.6 0.00 240 81.9 30.01 0.00 76.8 82.5 26.8
UH Manoa Atmospheric Sciences 7/12/20 1515 80.0 62 66.0 5.6 NE | 47 14.8 0.00 344 81.1 30.01 0.00 76.8 82.5 26.8
UH Manoa Atmospheric Sciences 7/12/20 1500 79.1 65 66.3 8.4 NE | 38 19.4 0.00 369 79.1 30.01 0.00 76.8 82.5 26.8
UH Manoa Atmospheric Sciences 7/12/20 1445 80.1 62 65.8 11.5 NE | 40 25.2 0.00 577 81.1 30.01 0.00 76.8 82.5 26.8
UH Manoa Atmospheric Sciences 7/12/20 1430 80.6 58 64.7 11.8 NE | 42 24.2 0.00 888 82.2 30.02 0.00 76.8 82.5 26.8
UH Manoa Atmospheric Sciences 7/12/20 1415 80.5 57 63.8 9.5 NE | 42 18.3 0.00 856 81.7 30.02 0.00 76.8 82.5 26.8
UH Manoa Atmospheric Sciences 7/12/20 1400 79.7 58 63.5 10.2 NE | 38 21.0 0.00 823 80.4 30.03 0.00 76.8 82.5 26.8
UH Manoa Atmospheric Sciences 7/12/20 1345 80.5 59 65.0 7.9 NE | 53 21.6 0.00 576 82.3 30.03 0.00 76.8 82.5 26.8
UH Manoa Atmospheric Sciences 7/12/20 1330 80.5 61 65.9 11.6 NE | 44 26.3 0.00 1,048 82.0 30.03 0.00 76.8 82.5 26.8
UH Manoa Atmospheric Sciences 7/12/20 1315 80.3 63 66.4 13.5 NE | 38 26.8 0.00 1,048 82.1 30.03 0.00 76.8 82.5 26.8
UH Manoa Atmospheric Sciences 7/12/20 1300 80.7 62 66.6 11.9 NE | 46 26.3 0.00 759 82.4 30.03 0.00 76.8 82.5 26.3
UH Manoa Atmospheric Sciences 7/12/20 1245 79.8 65 66.9 10.1 NE | 43 19.6 0.00 826 80.3 30.04 0.00 76.8 82.5 25.9
UH Manoa Atmospheric Sciences 7/12/20 1230 80.2 64 66.8 9.7 NE | 49 20.0 0.00 614 81.7 30.04 0.00 76.8 82.5 25.9
UH Manoa Atmospheric Sciences 7/12/20 1215 80.0 65 67.3 7.6 NE | 53 18.3 0.00 651 81.0 30.04 0.00 76.8 82.5 25.9
UH Manoa Atmospheric Sciences 7/12/20 1200 79.5 67 67.6 5.1 NE | 55 12.2 0.00 438 79.8 30.05 0.00 76.8 82.5 25.9
UH Manoa Atmospheric Sciences 7/12/20 1145 79.1 67 67.3 6.6 NE | 38 15.3 0.00 449 79.1 30.05 0.00 76.8 82.5 25.9
UH Manoa Atmospheric Sciences 7/12/20 1130 79.9 63 66.2 9.2 NE | 42 22.5 0.00 574 80.3 30.05 0.00 76.8 82.5 25.9
UH Manoa Atmospheric Sciences 7/12/20 1115 80.4 61 65.6 12.6 NE | 43 25.9 0.00 532 81.8 30.05 0.00 76.8 82.5 25.9
UH Manoa Atmospheric Sciences 7/12/20 1100 80.9 60 65.6 10.9 NE | 44 23.6 0.00 749 82.9 30.05 0.00 76.8 82.5 23.6
UH Manoa Atmospheric Sciences 7/12/20 1045 81.0 59 65.5 10.3 NE | 40 22.4 0.00 894 83.0 30.05 0.00 76.8 82.5 22.4
UH Manoa Atmospheric Sciences 7/12/20 1030 81.4 59 65.5 10.2 NE | 47 21.5 0.00 760 83.3 30.06 0.00 76.8 82.5 21.5
UH Manoa Atmospheric Sciences 7/12/20 1015 81.7 58 65.6 6.4 ENE | 64 16.2 0.00 659 83.7 30.06 0.00 76.8 82.5 21.1
UH Manoa Atmospheric Sciences 7/12/20 1000 81.2 59 65.6 7.3 NE | 48 21.1 0.00 818 83.2 30.06 0.00 76.8 82.5 21.1
UH Manoa Atmospheric Sciences 7/12/20 0945 80.8 60 65.7 7.0 NE | 42 15.0 0.00 718 82.8 30.06 0.00 76.8 81.8 19.8
UH Manoa Atmospheric Sciences 7/12/20 0930 80.3 60 65.3 6.3 NE | 55 13.0 0.00 517 81.7 30.07 0.00 76.8 81.0 19.8
UH Manoa Atmospheric Sciences 7/12/20 0915 80.3 61 65.4 5.9 NE | 56 16.2 0.00 532 81.7 30.07 0.00 76.8 80.8 19.8
UH Manoa Atmospheric Sciences 7/12/20 0900 79.2 65 66.5 7.9 NE | 48 18.8 0.00 562 79.2 30.07 0.00 76.8 79.8 19.8
UH Manoa Atmospheric Sciences 7/12/20 0845 78.8 66 66.6 7.3 NE | 56 14.1 0.00 392 78.8 30.07 0.00 76.8 79.8 19.8
UH Manoa Atmospheric Sciences 7/12/20 0830 79.2 64 65.8 7.2 ENE | 61 16.2 0.00 266 79.2 30.07 0.00 76.8 79.8 19.8
UH Manoa Atmospheric Sciences 7/12/20 0815 79.0 64 65.7 6.2 ENE | 57 17.8 0.00 339 79.0 30.07 0.00 76.8 79.4 19.8
UH Manoa Atmospheric Sciences 7/12/20 0800 78.5 65 65.7 7.7 ENE | 57 16.3 0.00 276 78.5 30.07 0.00 76.8 78.8 19.8
UH Manoa Atmospheric Sciences 7/12/20 0745 78.3 66 65.9 5.4 ENE | 61 16.7 0.00 263 78.3 30.07 0.00 76.8 78.7 19.8
UH Manoa Atmospheric Sciences 7/12/20 0730 78.0 65 65.4 6.3 NE | 52 14.0 0.00 181 78.0 30.07 0.00 76.8 78.4 19.8
UH Manoa Atmospheric Sciences 7/12/20 0715 77.5 67 65.6 5.1 ENE | 62 11.7 0.00 96 77.5 30.07 0.00 76.8 78.4 19.8
UH Manoa Atmospheric Sciences 7/12/20 0700 77.3 67 65.7 4.6 ENE | 59 9.5 0.00 49 77.3 30.07 0.00 76.8 78.4 19.8
UH Manoa Atmospheric Sciences 7/12/20 0645 77.2 68 65.8 7.1 ENE | 65 17.0 0.00 32 77.2 30.06 0.00 76.8 78.4 19.8
UH Manoa Atmospheric Sciences 7/12/20 0630 77.2 69 66.3 7.9 ENE | 62 17.2 0.00 20 77.2 30.06 0.00 76.8 78.4 19.8
Max     81.7 78 68.3 13.5 - 26.8 0.00 1,048 83.7 30.07 0.00 76.8 82.5 26.8
Avg     78.5 66 66.3 7.4 - 16.6 0.00 283 79.0 30.04 - - - -
Min     75.8 57 63.5 2.7 - 8.4 0.00 0 75.8 30.00 0.00 75.0 77.4 12.2